Time;durP1;ratioP1;P1;durP2;ratioP2;P2;SDS_P1;SDS_P2;PMS_P1;PMS_P2;Temp;Humidity;BMP_temperature;BMP_pressure;BME280_temperature;BME280_humidity;BME280_pressure;Samples;Min_cycle;Max_cycle;Signal;HPM_P1;HPM_P2
2024/04/12 00:06:30;;;;;;;0.00;0.00;;;;;;;15.40;60.73;102698.28;16678021;26;20114;-51
2024/04/12 00:14:13;;;;;;;0.00;0.00;;;;;;;14.89;62.15;102690.28;16678064;26;20081;-52
2024/04/12 00:21:52;;;;;;;0.00;0.00;;;;;;;14.84;62.04;102693.53;16625372;26;20466;-52
2024/04/12 00:29:36;;;;;;;0.00;0.00;;;;;;;14.45;62.91;102691.16;16580668;26;20075;-50
2024/04/12 00:37:15;;;;;;;0.10;0.10;;;;;;;14.54;62.27;102676.53;16628699;26;20049;-49
2024/04/12 00:44:58;;;;;;;0.03;0.03;;;;;;;14.38;63.88;102692.94;16689496;26;20081;-50
2024/04/12 00:52:43;;;;;;;0.00;0.00;;;;;;;14.67;63.47;102686.69;16609521;26;20372;-50
2024/04/12 01:00:34;;;;;;;0.00;0.00;;;;;;;14.85;61.97;102686.25;16579145;26;20001;-50
2024/04/12 01:08:10;;;;;;;0.00;0.00;;;;;;;14.90;61.34;102683.81;16593104;26;20329;-51
2024/04/12 01:15:58;;;;;;;0.00;0.00;;;;;;;14.60;62.57;102680.38;16579384;26;20503;-51
2024/04/12 01:23:33;;;;;;;0.00;0.00;;;;;;;14.56;62.95;102657.44;16577703;26;20516;-52
2024/04/12 01:31:14;;;;;;;0.00;0.00;;;;;;;14.44;62.67;102662.47;16673891;26;20001;-52
2024/04/12 01:38:53;;;;;;;0.00;0.00;;;;;;;14.53;63.00;102664.91;16639143;26;20077;-52
2024/04/12 01:46:58;;;;;;;0.00;0.00;;;;;;;14.17;63.40;102655.88;16552743;26;20000;-53
2024/04/12 01:55:04;;;;;;;0.00;0.00;;;;;;;13.74;65.00;102645.72;16655605;26;20004;-50
2024/04/12 02:02:34;;;;;;;0.00;0.00;;;;;;;14.13;63.95;102641.06;16684035;26;20008;-52
2024/04/12 02:10:13;;;;;;;0.00;0.00;;;;;;;14.18;63.99;102644.91;16684238;26;20004;-53
2024/04/12 02:17:57;;;;;;;0.17;0.17;;;;;;;14.23;63.91;102647.88;16684062;26;20032;-50
2024/04/12 02:25:35;;;;;;;0.00;0.00;;;;;;;14.17;63.91;102654.00;16624777;26;20001;-48
2024/04/12 02:33:19;;;;;;;0.63;0.28;;;;;;;14.17;64.43;102655.88;16572334;26;20016;-51
2024/04/12 02:40:57;;;;;;;0.00;0.00;;;;;;;14.04;65.02;102664.66;16679756;26;20432;-50
2024/04/12 02:48:39;;;;;;;0.10;0.10;;;;;;;14.28;63.88;102667.06;16659031;26;20017;-51
2024/04/12 02:56:18;;;;;;;0.10;0.10;;;;;;;13.98;66.11;102657.28;16670145;26;20007;-51
2024/04/12 03:03:58;;;;;;;0.52;0.30;;;;;;;14.31;64.88;102655.00;16681091;26;20048;-49
2024/04/12 03:11:37;;;;;;;0.00;0.00;;;;;;;13.36;68.02;102639.50;16664117;21;20090;-57
2024/04/12 03:19:15;;;;;;;1.02;0.90;;;;;;;13.25;68.38;102639.94;16548950;26;20013;-56
2024/04/12 03:26:54;;;;;;;0.80;0.20;;;;;;;14.05;65.75;102642.00;16562078;26;20001;-56
2024/04/12 03:34:35;;;;;;;0.00;0.00;;;;;;;14.12;65.95;102648.31;16548220;26;20302;-51
2024/04/12 03:42:11;;;;;;;0.43;0.30;;;;;;;13.52;67.43;102636.69;16548167;26;20000;-51
2024/04/12 03:49:54;;;;;;;0.00;0.00;;;;;;;13.82;67.15;102655.59;16550988;26;20298;-55
2024/04/12 03:57:30;;;;;;;2.30;0.57;;;;;;;13.88;67.40;102660.25;16534294;26;20359;-52
2024/04/12 04:05:17;;;;;;;0.15;0.15;;;;;;;14.08;66.46;102660.53;16540104;26;20005;-53
2024/04/12 04:12:57;;;;;;;0.00;0.00;;;;;;;13.93;67.23;102647.03;16571129;26;20005;-53
2024/04/12 04:20:42;;;;;;;0.83;0.77;;;;;;;13.98;67.10;102659.97;16571594;26;20008;-54
2024/04/12 04:28:18;;;;;;;0.00;0.00;;;;;;;14.33;65.05;102654.84;16568872;26;19997;-55
2024/04/12 04:36:00;;;;;;;0.10;0.10;;;;;;;14.18;66.40;102653.00;16556299;26;20045;-52
2024/04/12 04:43:46;;;;;;;0.03;0.03;;;;;;;14.11;66.94;102654.75;16568704;26;20005;-57
2024/04/12 04:51:28;;;;;;;0.00;0.00;;;;;;;14.33;65.24;102644.88;16579389;26;20001;-55
2024/04/12 04:59:06;;;;;;;0.45;0.30;;;;;;;13.79;67.07;102664.88;16568989;26;20012;-54
2024/04/12 05:06:55;;;;;;;0.05;0.05;;;;;;;14.11;66.20;102640.41;16539895;26;20001;-54
2024/04/12 05:14:54;;;;;;;0.10;0.10;;;;;;;13.79;67.78;102632.50;16568031;26;20025;-51
2024/04/12 05:22:35;;;;;;;0.00;0.00;;;;;;;13.74;68.09;102618.72;16566057;26;20009;-53
2024/04/12 05:30:13;;;;;;;0.00;0.00;;;;;;;13.91;67.60;102629.34;16568011;26;20322;-56
2024/04/12 05:37:52;;;;;;;2.05;1.27;;;;;;;13.83;67.89;102622.19;16522308;26;20048;-54
2024/04/12 05:45:27;;;;;;;1.95;0.15;;;;;;;14.08;67.24;102630.81;16558861;26;20013;-53
2024/04/12 05:53:05;;;;;;;0.00;0.00;;;;;;;14.07;67.32;102631.00;16566656;26;20000;-52
2024/04/12 06:00:47;;;;;;;0.10;0.10;;;;;;;14.48;66.00;102618.69;16567960;26;20104;-47
2024/04/12 06:08:26;;;;;;;0.10;0.10;;;;;;;14.49;66.25;102623.06;16567300;26;20427;-50
2024/04/12 06:16:01;;;;;;;0.30;0.30;;;;;;;14.49;66.30;102616.81;16565378;26;20020;-50
2024/04/12 06:23:40;;;;;;;0.10;0.10;;;;;;;14.48;67.29;102624.09;16563986;26;20004;-51
2024/04/12 06:31:19;;;;;;;0.22;0.20;;;;;;;14.86;66.18;102620.34;16564686;26;20375;-52
2024/04/12 06:38:57;;;;;;;0.17;0.17;;;;;;;14.62;67.20;102624.25;16555821;26;20374;-47
2024/04/12 06:46:33;;;;;;;0.10;0.10;;;;;;;14.85;66.50;102634.91;16557725;26;20079;-55
2024/04/12 06:54:11;;;;;;;0.17;0.17;;;;;;;14.65;67.20;102632.00;16551632;26;19997;-48
2024/04/12 07:01:49;;;;;;;0.55;0.35;;;;;;;14.79;66.27;102637.34;16564341;26;20005;-49
2024/04/12 07:09:30;;;;;;;0.22;0.22;;;;;;;14.64;67.79;102644.66;16564375;26;20000;-50
2024/04/12 07:17:19;;;;;;;0.40;0.30;;;;;;;15.18;65.68;102633.34;16563176;26;20016;-50
2024/04/12 07:25:06;;;;;;;0.10;0.10;;;;;;;15.64;63.75;102645.63;16557485;26;20012;-48
2024/04/12 07:32:42;;;;;;;0.10;0.10;;;;;;;15.75;63.82;102647.75;16557211;26;20055;-51
2024/04/12 07:40:24;;;;;;;0.50;0.38;;;;;;;15.38;65.82;102629.97;16533085;26;20001;-51
2024/04/12 07:48:11;;;;;;;1.00;0.43;;;;;;;15.88;64.23;102626.19;16581103;26;20780;-48
2024/04/12 07:55:58;;;;;;;0.22;0.22;;;;;;;15.53;65.20;102612.63;16571944;26;19997;-49
2024/04/12 08:03:36;;;;;;;1.35;0.77;;;;;;;15.62;64.69;102636.81;16570528;26;20120;-45
2024/04/12 08:19:12;;;;;;;0.47;0.47;;;;;;;15.77;64.28;102624.06;16570902;26;20001;-47
2024/04/12 08:26:51;;;;;;;0.20;0.10;;;;;;;15.58;65.26;102622.84;16566881;26;20005;-49
2024/04/12 08:34:31;;;;;;;0.82;0.60;;;;;;;15.90;64.87;102617.84;16571585;26;20169;-50
2024/04/12 08:42:10;;;;;;;0.55;0.45;;;;;;;15.82;64.83;102617.00;16544971;26;20005;-48
2024/04/12 08:49:48;;;;;;;0.52;0.52;;;;;;;15.73;64.63;102618.19;16581231;26;20005;-50
2024/04/12 08:57:28;;;;;;;0.35;0.35;;;;;;;16.53;62.69;102603.13;16564186;26;20112;-55
2024/04/12 09:05:06;;;;;;;0.30;0.30;;;;;;;16.76;62.04;102591.97;16561800;26;20079;-52
2024/04/12 09:12:46;;;;;;;0.38;0.30;;;;;;;16.91;61.52;102599.06;16602626;21;20312;-52
2024/04/12 09:20:29;;;;;;;1.95;1.15;;;;;;;16.61;62.09;102604.00;16713180;26;19999;-54
2024/04/12 09:28:12;;;;;;;3.40;1.10;;;;;;;17.11;61.78;102593.66;16783839;26;20468;-51
2024/04/12 09:35:50;;;;;;;0.52;0.52;;;;;;;17.39;59.56;102583.41;16788919;26;19995;-51
2024/04/12 09:43:31;;;;;;;6.63;1.38;;;;;;;17.32;59.58;102582.59;16682262;26;20036;-52
2024/04/12 10:38:54;;;;;;;0.47;0.47;;;;;;;18.01;56.56;102524.16;16774395;26;20456;-47
2024/04/12 10:46:33;;;;;;;0.70;0.70;;;;;;;17.88;56.18;102535.06;16750511;26;20451;-48
2024/04/12 10:54:23;;;;;;;0.03;0.03;;;;;;;18.14;55.96;102523.22;16776813;26;20000;-48
2024/04/12 11:02:02;;;;;;;4.47;1.08;;;;;;;17.51;56.61;102508.41;16760267;26;20340;-49
2024/04/12 11:09:43;;;;;;;0.30;0.30;;;;;;;18.16;55.99;102486.66;16790597;26;20065;-48
2024/04/12 11:33:12;;;;;;;0.00;0.00;;;;;;;20.10;50.22;102479.13;16765678;26;20000;-51
2024/04/12 11:40:48;;;;;;;0.28;0.28;;;;;;;19.95;50.65;102474.06;16765505;26;20365;-52
2024/04/12 11:48:31;;;;;;;2.30;0.35;;;;;;;20.18;49.40;102469.75;16740013;26;20398;-49
2024/04/12 11:56:09;;;;;;;0.10;0.10;;;;;;;20.94;48.12;102460.81;16790293;26;20403;-49
2024/04/12 12:03:54;;;;;;;0.20;0.20;;;;;;;21.74;47.68;102432.75;16783905;26;20010;-51
2024/04/12 12:11:29;;;;;;;3.85;0.70;;;;;;;22.43;47.38;102429.91;16753391;26;20546;-50
2024/04/12 12:19:07;;;;;;;1.90;0.88;;;;;;;21.85;45.60;102406.44;16793845;26;20011;-52
2024/04/12 12:26:44;;;;;;;0.47;0.43;;;;;;;22.54;43.38;102403.53;16799983;26;20003;-54
2024/04/12 12:34:23;;;;;;;0.10;0.10;;;;;;;22.92;43.83;102375.38;16768871;26;20015;-53
2024/04/12 12:41:59;;;;;;;0.20;0.20;;;;;;;23.46;43.12;102371.94;16792774;26;20383;-50
2024/04/12 12:49:40;;;;;;;0.98;0.28;;;;;;;22.70;44.16;102369.81;16775976;26;20040;-52
2024/04/12 12:57:17;;;;;;;0.10;0.10;;;;;;;23.06;42.15;102359.41;16773720;26;20006;-51
2024/04/12 13:04:55;;;;;;;0.77;0.52;;;;;;;23.05;42.37;102363.22;16798249;26;20349;-50
2024/04/12 13:12:30;;;;;;;0.47;0.47;;;;;;;22.59;43.23;102343.41;16794272;26;20003;-56
2024/04/12 13:20:18;;;;;;;0.52;0.15;;;;;;;21.57;45.74;102330.75;16807628;26;20081;-50
2024/04/12 13:27:54;;;;;;;1.00;0.20;;;;;;;21.65;45.99;102311.22;16806849;26;19996;-49
2024/04/12 13:35:32;;;;;;;0.17;0.15;;;;;;;22.04;45.65;102314.88;16786830;26;20015;-48
2024/04/12 13:43:13;;;;;;;2.17;0.82;;;;;;;21.42;46.50;102286.75;16805226;26;20344;-50
2024/04/12 13:50:58;;;;;;;0.38;0.20;;;;;;;21.63;45.51;102270.47;16776636;26;20000;-49
2024/04/12 13:58:36;;;;;;;0.10;0.10;;;;;;;22.10;45.38;102263.84;16793099;26;20018;-51
2024/04/12 14:06:14;;;;;;;4.28;1.33;;;;;;;22.72;46.20;102257.34;16803906;26;20004;-52
2024/04/12 14:13:50;;;;;;;0.10;0.10;;;;;;;21.64;47.30;102260.38;16804016;26;20015;-51
2024/04/12 14:21:29;;;;;;;0.00;0.00;;;;;;;21.77;47.22;102242.81;16804870;26;20081;-51
2024/04/12 14:29:04;;;;;;;0.25;0.20;;;;;;;21.76;46.86;102228.31;16804396;26;20452;-52
2024/04/12 14:36:43;;;;;;;0.00;0.00;;;;;;;21.53;46.98;102214.81;16784838;26;19999;-52
2024/04/12 14:44:18;;;;;;;0.57;0.40;;;;;;;21.51;48.14;102217.00;16800344;26;20034;-48
2024/04/12 14:52:01;;;;;;;2.08;1.02;;;;;;;;;;16772977;26;19999;-50
2024/04/12 14:59:36;;;;;;;0.00;0.00;;;;;;;21.73;47.77;102192.47;16802021;26;20524;-56
2024/04/12 15:54:37;;;;;;;0.10;0.10;;;;;;;20.98;49.44;102194.41;16692069;26;20001;-51
2024/04/12 16:18:02;;;;;;;0.00;0.00;;;;;;;20.47;49.55;102159.81;16695153;26;20011;-48
2024/04/12 16:25:40;;;;;;;0.05;0.05;;;;;;;20.23;50.20;102165.34;16695063;26;20007;-54
2024/04/12 16:33:16;;;;;;;0.50;0.35;;;;;;;19.78;51.23;102167.88;16694557;26;20428;-50
2024/04/12 16:40:55;;;;;;;0.57;0.47;;;;;;;19.89;51.55;102156.16;16694585;26;20019;-50
2024/04/12 16:48:30;;;;;;;0.45;0.28;;;;;;;19.88;52.56;102151.75;16680188;26;20014;-50
2024/04/12 16:56:09;;;;;;;0.17;0.08;;;;;;;19.71;52.52;102151.63;16693841;26;20472;-52
2024/04/12 17:03:45;;;;;;;0.55;0.35;;;;;;;19.28;54.01;102144.59;16692161;26;20083;-49
2024/04/12 17:11:24;;;;;;;2.38;0.75;;;;;;;18.95;55.18;102141.56;16693456;26;20015;-49
2024/04/12 17:19:00;;;;;;;0.55;0.20;;;;;;;19.20;54.74;102144.09;16692401;26;20000;-49
2024/04/12 17:26:38;;;;;;;0.03;0.03;;;;;;;19.06;55.07;102140.75;16681880;26;20000;-46
2024/04/12 17:34:13;;;;;;;0.20;0.20;;;;;;;18.97;56.39;102153.03;16680081;26;20378;-51
2024/04/12 17:41:51;;;;;;;0.30;0.30;;;;;;;19.21;55.36;102130.28;16684711;26;20011;-50
2024/04/12 17:49:28;;;;;;;0.10;0.10;;;;;;;19.05;56.15;102136.38;16683840;26;20392;-53
2024/04/12 17:57:08;;;;;;;0.32;0.32;;;;;;;18.92;56.41;102125.69;16652048;26;20024;-51
2024/04/12 18:04:45;;;;;;;0.05;0.03;;;;;;;18.69;56.99;102126.44;16645246;26;20005;-54
2024/04/12 18:12:24;;;;;;;0.00;0.00;;;;;;;18.43;57.71;102131.13;16644530;26;20054;-49
2024/04/12 18:19:59;;;;;;;0.00;0.00;;;;;;;18.10;58.72;102145.13;16681224;26;19996;-51
2024/04/12 18:27:39;;;;;;;0.38;0.38;;;;;;;18.07;58.58;102156.44;16678747;26;20563;-51
2024/04/12 18:35:15;;;;;;;0.03;0.03;;;;;;;17.97;59.21;102153.41;16680952;26;19996;-46
2024/04/12 18:50:46;;;;;;;0.00;0.00;;;;;;;17.53;60.16;102166.09;16670312;26;20000;-50
2024/04/12 18:58:24;;;;;;;0.00;0.00;;;;;;;17.64;59.55;102162.69;16681344;26;20069;-47
2024/04/12 19:06:06;;;;;;;0.00;0.00;;;;;;;17.52;60.22;102159.00;16678876;26;20069;-48
2024/04/12 19:13:43;;;;;;;0.00;0.00;;;;;;;17.51;59.83;102155.47;16661675;26;20394;-47
2024/04/12 19:21:20;;;;;;;0.28;0.28;;;;;;;17.58;59.94;102163.56;16652060;26;20547;-47
2024/04/12 19:28:59;;;;;;;0.00;0.00;;;;;;;17.32;60.77;102170.03;16681575;26;20000;-46
2024/04/12 19:36:38;;;;;;;0.08;0.08;;;;;;;17.19;61.11;102167.41;16688796;26;20015;-47
2024/04/12 19:44:17;;;;;;;0.00;0.00;;;;;;;17.53;60.13;102155.25;16688452;26;20000;-49
2024/04/12 19:51:52;;;;;;;0.00;0.00;;;;;;;16.99;62.11;102151.28;16688187;26;20019;-51
2024/04/12 19:59:30;;;;;;;0.00;0.00;;;;;;;17.08;62.15;102152.69;16687661;26;20000;-51
2024/04/12 20:07:06;;;;;;;0.00;0.00;;;;;;;17.14;62.05;102142.81;16688270;26;20004;-53
2024/04/12 20:14:43;;;;;;;0.00;0.00;;;;;;;17.19;62.06;102143.81;16687568;26;20015;-50
2024/04/12 20:22:22;;;;;;;0.13;0.13;;;;;;;16.83;63.33;102141.75;16686498;26;20008;-50
2024/04/12 20:30:19;;;;;;;0.00;0.00;;;;;;;16.91;63.42;102143.38;16657618;26;20381;-50
2024/04/12 20:37:54;;;;;;;0.05;0.05;;;;;;;16.54;63.90;102143.97;16683821;26;20791;-47
2024/04/12 20:45:32;;;;;;;0.00;0.00;;;;;;;16.75;63.52;102144.75;16685528;26;20000;-48
2024/04/12 20:53:07;;;;;;;0.00;0.00;;;;;;;16.66;64.08;102144.13;16684744;26;20020;-50
2024/04/12 21:00:44;;;;;;;1.15;0.45;;;;;;;16.57;64.26;102143.53;16685216;26;20099;-49
2024/04/12 21:08:19;;;;;;;0.00;0.00;;;;;;;16.47;65.06;102136.91;16684643;26;20011;-46
2024/04/12 21:15:58;;;;;;;0.43;0.20;;;;;;;16.62;64.08;102129.34;16769551;21;20067;-51
2024/04/12 21:23:34;;;;;;;0.40;0.40;;;;;;;16.68;64.37;102127.63;16904598;26;19999;-51
2024/04/12 21:31:12;;;;;;;0.52;0.20;;;;;;;16.82;64.07;102129.25;16908120;26;20475;-50
2024/04/12 21:38:50;;;;;;;0.00;0.00;;;;;;;16.70;64.27;102137.22;16906450;26;20013;-53
2024/04/12 21:46:28;;;;;;;0.20;0.20;;;;;;;16.64;64.70;102135.34;16906293;26;20013;-52
2024/04/12 21:54:03;;;;;;;0.00;0.00;;;;;;;16.70;63.83;102126.38;16905653;26;20011;-49
2024/04/12 22:01:43;;;;;;;0.20;0.08;;;;;;;16.59;64.22;102130.59;16891294;26;20013;-51
2024/04/12 22:09:19;;;;;;;0.20;0.20;;;;;;;16.40;64.80;102120.66;16905939;26;19995;-54
2024/04/12 22:17:00;;;;;;;0.10;0.10;;;;;;;16.24;65.82;102113.03;16905305;26;20021;-48
2024/04/12 22:24:37;;;;;;;5.68;1.67;;;;;;;16.19;65.86;102107.44;16874814;26;20033;-53
2024/04/12 22:32:15;;;;;;;1.00;0.20;;;;;;;16.18;66.12;102103.03;16905528;26;20405;-51
2024/04/12 22:39:52;;;;;;;0.00;0.00;;;;;;;15.85;66.66;102092.31;16905607;26;20003;-53
2024/04/12 22:47:30;;;;;;;0.30;0.30;;;;;;;15.97;66.34;102091.44;16904603;26;20042;-51
2024/04/12 22:55:06;;;;;;;0.13;0.13;;;;;;;15.61;67.04;102088.38;16904735;26;20017;-56
2024/04/12 23:02:44;;;;;;;0.00;0.00;;;;;;;15.75;66.83;102096.28;16905494;26;20010;-54
2024/04/12 23:10:19;;;;;;;0.00;0.00;;;;;;;15.63;67.60;102089.00;16906743;26;20431;-52
2024/04/12 23:17:57;;;;;;;0.00;0.00;;;;;;;15.48;68.11;102083.81;16908796;26;20465;-50
2024/04/12 23:25:33;;;;;;;0.55;0.13;;;;;;;14.94;69.53;102079.44;16905507;26;19998;-55
2024/04/12 23:33:11;;;;;;;0.00;0.00;;;;;;;14.94;68.97;102087.56;16907921;26;20010;-52
2024/04/12 23:40:46;;;;;;;1.85;0.38;;;;;;;14.95;69.11;102089.22;16908263;26;19995;-52
2024/04/12 23:48:24;;;;;;;0.00;0.00;;;;;;;14.62;70.54;102075.66;16906577;26;20438;-50
2024/04/12 23:55:59;;;;;;;0.00;0.00;;;;;;;14.66;70.15;102080.44;16904192;26;20047;-53
